Terminal Aerodrome Forecast
Issued by NWS

Home | Current Version | Previous Version | Text Only | Print | Product List | Glossary On
Versions: 1 2 3 4 5 6 7 8 9 10 11 12 13 14 15 16
000
FTUS43 KDMX 232335
TAFOTM
TAF
KOTM 232335Z 2400/2424 14012KT P6SM BKN250
     FM240600 17010KT P6SM SCT250 WS020/20050KT
     FM241200 17012KT P6SM BKN150
     FM241600 19012G19KT P6SM -RA SCT010 OVC050=

USA.gov is the U.S. government's official web portal to all federal, state and local government web resources and services.